Weather at Treasure Island (Pan American / Clipper Cove) Seaplane Base [CLOSED]

Public forecast

Using degrees Fahrenheit for public forecast. Weather courtesy of forecast.io.

Closest aviation weather report (METAR) to Treasure Island (Pan American / Clipper Cove) Seaplane Base

Closest report is Metropolitan Oakland International Airport, 9.1 nm (16.8 km) SE.

2024/05/30 18:53 (retrieved 22 minutes ago)

KOAK 301853Z 29009KT 10SM SCT250 22/10 A2998 RMK AO2 SLP151 T02220100

Closest aviation forecast (TAF) to Treasure Island (Pan American / Clipper Cove) Seaplane Base

Closest forecast is Metropolitan Oakland International Airport, 9.1 nm (16.8 km) SE.

2024/05/30 18:22 (retrieved 53 minutes ago)

TAF KOAK 301720Z 3018/3124 30004KT P6SM SKC FM302000 28013KT P6SM SKC FM310400 VRB04KT P6SM SKC FM312000 27011KT P6SM SKC